KFHR

Details ICAO KFHR (FRD)
Name FRIDAY HARBOR
Region United States
Timezone America/Los_Angeles (UTC-7.0)
Plans Departing 61
Arriving 43
Stats Elevation 113 ft / 34 m (AMSL)
Location 48.521966° -123.024368°
Runways 1
Magnetic Variation 16.007° E
Sunrise 2018-05-22 12:24:33 UTC / 2018-05-22 05:24:33 Local
Sunset 2018-05-23 03:55:54 UTC / 2018-05-22 20:55:54 Local
Advertisement - Login to hide

Runways

ID Width Length Bearing (true) Bearing (mag) Surface Threshold Offset Overrun Length
16 75 ft / 23 m 3,402 ft / 1,037 m 177.06° 161.05° Asphalt 0 ft / 0 m 0 ft / 0 m
34 75 ft / 23 m 3,402 ft / 1,037 m 357.06° 341.05° Asphalt 0 ft / 0 m 0 ft / 0 m

Map

Weather


0- 5 10 15 20 25 30 35+ Temperature / ° C

Clouds and Precipitation
Forecast for 2018-05-22 12:00 UTC. Updated 31 minutes ago

Ground ~20,000 ft ~40,000 ft Winds

METAR

KFHR 220853Z AUTO 00000KT 10SM CLR 09/07 A3000 RMK AO2 SLP160 T00890072 55001 TSNO

TAF

Not found

Frequencies

Recorded 135.67 MHz ASOS
Approach 118.20 MHz WHIDBEY APP/DEP
Unicom 128.25 MHz CTAF
Warning: Do not use this data for real-world aviation or navigation. No guarantee of current accuracy is given.